Tram, KY (41663)

4:13 PM EDT on July 30, 2016 (GMT -0400)
Ratliff Creek | | Change Station

Elev 699 ft 37.50 °N, 82.53 °W | Updated 3 minutes ago

Mostly Cloudy
Mostly Cloudy
85.6 °F
Feels Like 92 °F
N
0.7
Wind Variable Wind from WNW
Gusts 2.2 mph

Today
High -- | Low -- °F
--% Chance of Precip.
Yesterday
High -- | Low -- °F
Precip. -- in
Pressure 29.98 in
Visibility 10.0 miles
Clouds Scattered Clouds 3500 ft
Scattered Clouds 4100 ft
Mostly Cloudy 5000 ft
Heat Index 92 °F
Dew Point 72 °F
Humidity 64%
Rainfall 0.00 in
Snow Depth Not available.
6:33 AM 8:40 PM
Waning Crescent, 11% visible
METAR KSJS 301955Z AUTO 00000KT 10SM SCT035 SCT041 BKN050 29/22 A2998 RMK AO2 T02910219
Pressure 29.98 in
Visibility 10.0 miles
Clouds Scattered Clouds 3500 ft
Scattered Clouds 4100 ft
Mostly Cloudy 5000 ft
Heat Index 92 °F
Dew Point 72 °F
Humidity 64%
Rainfall 0.00 in
Snow Depth Not available.
6:33 AM 8:40 PM
Waning Crescent, 11% visible
METAR KSJS 301955Z AUTO 00000KT 10SM SCT035 SCT041 BKN050 29/22 A2998 RMK AO2 T02910219

10-Day Weather Forecast

Almanac

Astronomy

Jul. 30, 2016 Rise Set
Actual Time
Civil Twilight
Nautical Twilight
Astronomical Twilight
Moon
Length of Visible Light
Length of Day
Tomorrow will be .
, % of the Moon is Illuminated

Today's Extremes

State Highs State Lows

Community

WunderPhotos

Upload Photos

1,928,630 photos uploaded!

WunderBlog® & News

Nearby

Air Quality

  Air Quality AQ Index Pollutant
Not available.

Snow Depth

Station Depth Elevation

Earthquake Activity

City Distance Mag. Time & Date
Minimum magnitude displayed is 2.5.

Coastal Water Temperatures

Place Temperature

Stations

Nearby Weather Stations

Station Location Temp. Windchill Dew Point Humidity Wind Precip. Elev Updated Type
                   

Watches & Warnings

There are currently no watches in effect.